createdAt,value
2018-04-08T00:00:09.010Z,11.20
2018-04-08T00:02:36.477Z,12.20
2018-04-08T00:05:03.930Z,12.20
2018-04-08T00:07:31.394Z,13.10
2018-04-08T00:09:58.868Z,12.60
2018-04-08T00:12:26.305Z,13.60
2018-04-08T00:14:53.757Z,12.03
2018-04-08T00:17:21.251Z,12.93
2018-04-08T00:19:49.467Z,13.20
2018-04-08T00:22:16.919Z,11.97
2018-04-08T00:24:44.349Z,13.17
2018-04-08T00:27:11.799Z,13.50
2018-04-08T00:29:39.246Z,12.17
2018-04-08T00:32:07.459Z,11.90
2018-04-08T00:34:34.909Z,12.60
2018-04-08T00:37:02.361Z,13.80
2018-04-08T00:39:29.795Z,12.10
2018-04-08T00:41:58.014Z,11.63
2018-04-08T00:44:25.483Z,12.30
2018-04-08T00:46:52.918Z,10.73
2018-04-08T00:49:20.359Z,12.47
2018-04-08T00:51:47.812Z,11.57
2018-04-08T00:54:26.981Z,13.70
2018-04-08T00:56:54.436Z,13.43
2018-04-08T00:59:21.877Z,12.67
2018-04-08T01:01:49.345Z,13.27
2018-04-08T01:04:16.778Z,12.80
2018-04-08T01:06:44.223Z,13.03
2018-04-08T01:09:11.786Z,12.70
2018-04-08T01:11:39.234Z,12.37
2018-04-08T01:14:06.685Z,13.37
2018-04-08T01:16:34.121Z,12.13
2018-04-08T01:19:02.349Z,12.03
2018-04-08T01:21:29.790Z,11.80
2018-04-08T01:23:57.236Z,13.30
2018-04-08T01:26:24.690Z,11.53
2018-04-08T01:28:52.133Z,12.23
2018-04-08T01:31:20.334Z,11.70
2018-04-08T01:33:47.790Z,11.53
2018-04-08T01:36:15.238Z,11.63
2018-04-08T01:38:42.681Z,12.07
2018-04-08T01:41:10.915Z,11.37
2018-04-08T01:43:38.362Z,12.77
2018-04-08T01:46:05.794Z,11.00
2018-04-08T01:48:33.242Z,12.97
2018-04-08T01:51:01.497Z,11.40
2018-04-08T01:53:28.951Z,12.23
2018-04-08T01:55:56.410Z,11.80
2018-04-08T01:58:24.622Z,10.10
2018-04-08T02:00:52.063Z,11.87
2018-04-08T02:03:19.509Z,12.03
2018-04-08T02:05:46.962Z,11.63
2018-04-08T02:08:15.325Z,11.93
2018-04-08T02:10:43.536Z,12.60
2018-04-08T02:13:10.981Z,11.87
2018-04-08T02:15:38.421Z,11.70
2018-04-08T02:18:05.866Z,12.43
2018-04-08T02:20:34.078Z,12.27
2018-04-08T02:23:01.525Z,11.47
2018-04-08T02:25:28.975Z,11.27
2018-04-08T02:27:56.423Z,12.20
2018-04-08T02:30:23.866Z,13.30
2018-04-08T02:32:52.079Z,13.10
2018-04-08T02:35:19.527Z,12.13
2018-04-08T02:37:46.967Z,13.30
2018-04-08T02:40:14.427Z,12.20
2018-04-08T02:42:41.866Z,12.23
2018-04-08T02:45:10.090Z,11.67
2018-04-08T02:47:37.540Z,10.67
2018-04-08T02:50:04.990Z,11.57
2018-04-08T02:52:32.442Z,11.93
2018-04-08T02:54:59.898Z,12.30
2018-04-08T02:57:27.350Z,11.60
2018-04-08T02:59:54.807Z,12.97
2018-04-08T03:02:22.247Z,12.27
2018-04-08T03:04:49.713Z,11.90
2018-04-08T03:07:17.166Z,11.80
2018-04-08T03:09:44.606Z,10.77
2018-04-08T03:12:12.811Z,11.73
2018-04-08T03:14:40.263Z,9.90
2018-04-08T03:17:07.723Z,10.70
2018-04-08T03:19:35.186Z,11.93
2018-04-08T03:22:02.636Z,12.00
2018-04-08T03:24:30.075Z,12.50
2018-04-08T03:26:57.535Z,10.90
2018-04-08T03:29:24.980Z,11.33
2018-04-08T03:31:52.438Z,11.00
2018-04-08T03:34:19.882Z,11.63
2018-04-08T03:36:48.099Z,12.43
2018-04-08T03:39:15.539Z,13.37
2018-04-08T03:41:42.982Z,11.27
2018-04-08T03:44:10.421Z,12.77
2018-04-08T03:46:38.634Z,12.40
2018-04-08T03:49:06.070Z,11.83
2018-04-08T03:51:33.534Z,12.23
2018-04-08T03:54:00.975Z,12.10
2018-04-08T03:56:28.434Z,12.80
2018-04-08T03:58:55.878Z,11.87
2018-04-08T04:01:24.098Z,11.47
2018-04-08T04:03:51.549Z,12.47
2018-04-08T04:06:18.998Z,11.23
2018-04-08T04:08:46.447Z,10.90
2018-04-08T04:11:13.890Z,12.23
2018-04-08T04:13:41.336Z,11.77
2018-04-08T04:16:09.555Z,12.30
2018-04-08T04:18:48.818Z,11.80
2018-04-08T04:21:28.116Z,11.50
2018-04-08T04:24:07.302Z,12.33
2018-04-08T04:26:35.533Z,12.10
2018-04-08T04:29:02.973Z,13.20
2018-04-08T04:31:30.436Z,12.07
2018-04-08T04:33:57.879Z,13.00
2018-04-08T04:36:25.328Z,13.00
2018-04-08T04:38:52.781Z,12.90
2018-04-08T04:41:20.235Z,11.47
2018-04-08T04:43:47.691Z,12.70
2018-04-08T04:46:15.161Z,13.63
2018-04-08T04:48:42.601Z,12.20
2018-04-08T04:51:10.046Z,12.27
2018-04-08T04:53:38.258Z,12.13
2018-04-08T04:56:05.714Z,13.10
2018-04-08T04:58:33.165Z,12.23
2018-04-08T05:01:00.622Z,11.63
2018-04-08T05:03:28.084Z,12.90
2018-04-08T05:05:55.527Z,11.73
2018-04-08T05:08:22.978Z,13.57
2018-04-08T05:10:50.413Z,12.17
2018-04-08T05:13:18.636Z,12.03
2018-04-08T05:15:46.081Z,13.13
2018-04-08T05:18:13.539Z,12.47
2018-04-08T05:20:40.983Z,12.27
2018-04-08T05:23:08.481Z,13.70
2018-04-08T05:25:35.885Z,12.57
2018-04-08T05:28:03.333Z,14.20
2018-04-08T05:30:31.534Z,11.67
2018-04-08T05:32:58.991Z,13.80
2018-04-08T05:35:26.436Z,14.53
2018-04-08T05:37:53.902Z,12.77
2018-04-08T05:40:21.350Z,12.37
2018-04-08T05:42:48.804Z,14.07
2018-04-08T05:45:16.256Z,12.50
2018-04-08T05:47:43.720Z,12.97
2018-04-08T05:50:11.147Z,12.17
2018-04-08T05:52:39.362Z,13.13
2018-04-08T05:55:06.818Z,13.93
2018-04-08T05:57:34.266Z,14.50
2018-04-08T06:00:01.712Z,14.27
2018-04-08T06:02:29.157Z,13.63
2018-04-08T06:04:56.610Z,13.67
2018-04-08T06:07:24.070Z,13.37
2018-04-08T06:09:51.526Z,13.67
2018-04-08T06:12:19.733Z,13.77
2018-04-08T06:14:47.193Z,14.10
2018-04-08T06:17:14.666Z,13.57
2018-04-08T06:19:42.104Z,14.37
2018-04-08T06:22:09.553Z,15.33
2018-04-08T06:24:37.006Z,15.17
2018-04-08T06:27:04.608Z,14.73
2018-04-08T06:35:31.762Z,14.10
2018-04-08T06:37:59.966Z,13.73
2018-04-08T06:40:27.422Z,14.30
2018-04-08T06:42:54.866Z,15.27
2018-04-08T06:45:42.193Z,15.73
2018-04-08T06:48:09.655Z,14.23
2018-04-08T06:50:37.107Z,15.90
2018-04-08T06:53:04.552Z,16.17
2018-04-08T06:55:32.001Z,15.40
2018-04-08T06:57:59.479Z,16.03
2018-04-08T07:00:26.930Z,14.50
2018-04-08T07:02:55.351Z,15.30
2018-04-08T07:05:23.576Z,16.63
2018-04-08T07:07:51.013Z,14.60
2018-04-08T07:10:18.479Z,14.90
2018-04-08T07:12:45.976Z,14.90
2018-04-08T07:15:13.416Z,15.87
2018-04-08T07:17:40.857Z,15.70
2018-04-08T07:20:08.306Z,15.90
2018-04-08T07:22:35.756Z,15.43
2018-04-08T07:25:03.214Z,15.07
2018-04-08T07:27:30.664Z,14.50
2018-04-08T07:29:58.113Z,17.00
2018-04-08T07:32:25.557Z,13.90
2018-04-08T07:34:53.022Z,14.23
2018-04-08T07:37:20.458Z,14.60
2018-04-08T07:39:48.678Z,14.40
2018-04-08T07:42:16.120Z,14.80
2018-04-08T07:44:43.562Z,13.63
2018-04-08T07:47:11.672Z,14.80
2018-04-08T07:49:39.146Z,13.47
2018-04-08T07:52:06.607Z,15.37
2018-04-08T07:54:34.054Z,15.20
2018-04-08T07:57:01.506Z,15.00
2018-04-08T07:59:28.966Z,15.40
2018-04-08T08:01:56.415Z,14.23
2018-04-08T08:04:23.879Z,15.37
2018-04-08T08:06:51.331Z,14.97
2018-04-08T08:09:18.784Z,15.90
2018-04-08T08:11:46.238Z,17.17
2018-04-08T08:14:13.693Z,15.70
2018-04-08T08:16:41.254Z,15.27
2018-04-08T08:19:08.735Z,15.30
2018-04-08T08:21:36.178Z,15.03
2018-04-08T08:24:03.625Z,13.53
2018-04-08T08:26:31.075Z,14.87
2018-04-08T08:28:58.525Z,14.83
2018-04-08T08:31:25.996Z,14.50
2018-04-08T08:33:53.475Z,14.03
2018-04-08T08:36:21.474Z,14.87
2018-04-08T08:38:48.920Z,14.50
2018-04-08T08:41:16.375Z,15.53
2018-04-08T08:43:44.602Z,13.97
2018-04-08T08:46:12.027Z,12.57
2018-04-08T08:48:39.462Z,14.90
2018-04-08T08:51:07.684Z,14.03
2018-04-08T08:53:35.126Z,12.30
2018-04-08T08:56:02.566Z,15.20
2018-04-08T08:58:30.019Z,14.77
2018-04-08T09:00:57.476Z,13.97
2018-04-08T09:03:24.926Z,14.70
2018-04-08T09:05:52.378Z,15.03
2018-04-08T09:08:19.832Z,13.37
2018-04-08T09:10:48.074Z,14.70
2018-04-08T09:13:15.524Z,14.20
2018-04-08T09:15:42.967Z,13.33
2018-04-08T09:18:10.406Z,14.20
2018-04-08T09:23:54.322Z,14.40
2018-04-08T09:26:21.768Z,15.87
2018-04-08T09:28:49.236Z,13.63
2018-04-08T09:31:16.692Z,15.73
2018-04-08T09:33:44.898Z,17.47
2018-04-08T09:36:12.373Z,15.07
2018-04-08T09:38:39.794Z,14.60
2018-04-08T09:41:07.255Z,14.43
2018-04-08T09:43:34.757Z,15.27
2018-04-08T09:46:02.193Z,13.50
2018-04-08T09:48:31.441Z,16.00
2018-04-08T09:50:58.936Z,16.40
2018-04-08T09:53:26.346Z,17.47
2018-04-08T09:55:53.811Z,14.17
2018-04-08T09:58:24.005Z,17.50
2018-04-08T10:03:49.514Z,18.37
2018-04-08T10:06:16.961Z,17.33
2018-04-08T10:08:44.408Z,17.30
2018-04-08T10:11:11.848Z,17.40
2018-04-08T10:13:39.303Z,16.57
2018-04-08T10:16:07.505Z,14.07
2018-04-08T10:18:34.958Z,15.20
2018-04-08T10:21:02.396Z,15.90
2018-04-08T10:23:29.854Z,13.40
2018-04-08T10:25:58.066Z,12.70
2018-04-08T10:28:25.509Z,15.37
2018-04-08T10:30:52.952Z,14.87
2018-04-08T10:33:21.122Z,14.43
2018-04-08T10:35:48.567Z,13.53
2018-04-08T10:38:16.022Z,14.57
2018-04-08T10:40:44.237Z,14.60
2018-04-08T10:43:11.686Z,12.60
2018-04-08T10:45:39.126Z,13.10
2018-04-08T10:48:06.575Z,12.37
2018-04-08T10:50:34.023Z,14.07
2018-04-08T10:53:01.476Z,14.97
2018-04-08T10:55:30.398Z,13.97
2018-04-08T10:57:57.870Z,14.97
2018-04-08T11:00:25.327Z,15.63
2018-04-08T11:02:52.773Z,11.70
2018-04-08T11:05:20.223Z,12.63
2018-04-08T11:07:47.661Z,12.87
2018-04-08T11:10:15.192Z,14.03
2018-04-08T11:12:42.582Z,13.77
2018-04-08T11:15:10.034Z,14.47
2018-04-08T11:17:37.487Z,14.23
2018-04-08T11:20:04.935Z,14.70
2018-04-08T11:22:32.398Z,14.17
2018-04-08T11:25:00.617Z,14.20
2018-04-08T11:27:28.111Z,14.47
2018-04-08T11:29:55.546Z,13.07
2018-04-08T11:32:22.989Z,13.13
2018-04-08T11:34:50.486Z,13.50
2018-04-08T11:37:17.947Z,12.57
2018-04-08T11:39:45.469Z,13.30
2018-04-08T11:42:12.905Z,13.97
2018-04-08T11:44:40.355Z,11.70
2018-04-08T11:47:07.801Z,13.03
2018-04-08T11:49:35.258Z,12.73
2018-04-08T11:52:02.707Z,12.20
2018-04-08T11:54:30.159Z,11.97
2018-04-08T11:56:57.610Z,11.83
2018-04-08T11:59:25.098Z,12.17
2018-04-08T12:01:52.543Z,12.80
2018-04-08T12:04:20.001Z,12.07
2018-04-08T12:06:47.442Z,11.87
2018-04-08T12:09:14.889Z,11.87
2018-04-08T12:11:42.341Z,11.27
2018-04-08T12:14:09.803Z,15.87
2018-04-08T12:16:38.011Z,13.83
2018-04-08T12:19:05.457Z,15.13
2018-04-08T12:21:32.905Z,18.60
2018-04-08T12:24:00.376Z,10.53
2018-04-08T12:26:32.686Z,12.03
2018-04-08T12:29:00.131Z,13.30
2018-04-08T12:31:27.577Z,47.20
2018-04-08T12:33:55.022Z,17.40
2018-04-08T12:36:22.487Z,10.60
2018-04-08T12:38:49.978Z,10.53
2018-04-08T12:41:17.438Z,10.93
2018-04-08T12:43:45.640Z,9.50
2018-04-08T12:46:13.100Z,10.43
2018-04-08T12:48:40.534Z,10.00
2018-04-08T12:51:07.973Z,11.30
2018-04-08T12:53:36.208Z,10.80
2018-04-08T12:56:03.671Z,10.57
2018-04-08T12:58:31.106Z,9.27
2018-04-08T13:00:58.563Z,10.87
2018-04-08T13:03:26.010Z,10.30
2018-04-08T13:05:53.458Z,11.43
2018-04-08T13:08:20.902Z,10.80
2018-04-08T13:10:48.358Z,11.27
2018-04-08T13:13:15.799Z,11.40
2018-04-08T13:15:43.257Z,11.40
2018-04-08T13:18:10.700Z,9.27
2018-04-08T13:20:38.152Z,10.73
2018-04-08T13:23:05.584Z,9.80
2018-04-08T13:25:33.043Z,9.23
2018-04-08T13:28:00.486Z,9.87
2018-04-08T13:30:27.935Z,8.93
2018-04-08T13:32:55.405Z,8.80
2018-04-08T13:35:22.828Z,9.77
2018-04-08T13:37:50.267Z,9.10
2018-04-08T13:40:17.706Z,9.60
2018-04-08T13:42:45.154Z,8.83
2018-04-08T13:45:12.592Z,8.40
2018-04-08T13:47:40.037Z,9.03
2018-04-08T13:50:07.474Z,8.10
2018-04-08T13:52:34.925Z,7.87
2018-04-08T13:55:02.347Z,7.33
2018-04-08T13:57:29.796Z,8.23
2018-04-08T13:59:57.237Z,6.93
2018-04-08T14:02:24.689Z,8.73
2018-04-08T14:04:52.440Z,8.37
2018-04-08T14:07:20.831Z,8.70
2018-04-08T14:09:49.705Z,8.70
2018-04-08T14:12:17.138Z,8.33
2018-04-08T14:14:48.410Z,9.13
2018-04-08T14:17:17.237Z,8.50
2018-04-08T14:19:44.671Z,6.90
2018-04-08T14:22:14.145Z,7.93
2018-04-08T14:24:41.600Z,7.30
2018-04-08T14:27:09.027Z,7.40
2018-04-08T14:29:37.227Z,6.23
2018-04-08T14:32:04.674Z,5.50
2018-04-08T14:34:32.102Z,5.77
2018-04-08T14:37:00.314Z,6.10
2018-04-08T14:39:27.756Z,5.27
2018-04-08T14:41:55.193Z,4.93
2018-04-08T14:44:23.390Z,5.40
2018-04-08T14:46:50.858Z,5.57
2018-04-08T14:49:18.286Z,6.03
2018-04-08T14:51:46.516Z,4.57
2018-04-08T14:54:13.947Z,4.50
2018-04-08T14:56:41.386Z,5.67
2018-04-08T14:59:08.826Z,5.40
2018-04-08T15:01:37.048Z,5.27
2018-04-08T15:04:04.486Z,7.03
2018-04-08T15:06:31.922Z,6.27
2018-04-08T15:08:59.370Z,5.40
2018-04-08T15:11:27.570Z,5.53
2018-04-08T15:13:55.011Z,6.37
2018-04-08T15:16:22.450Z,4.90
2018-04-08T15:18:50.659Z,4.13
2018-04-08T15:21:18.095Z,4.27
2018-04-08T15:23:45.529Z,4.80
2018-04-08T15:26:13.726Z,4.77
2018-04-08T15:28:41.166Z,5.80
2018-04-08T15:31:09.375Z,4.50
2018-04-08T15:33:36.812Z,4.40
2018-04-08T15:36:04.255Z,4.50
2018-04-08T15:38:32.454Z,4.50
2018-04-08T15:41:00.306Z,4.13
2018-04-08T15:43:28.984Z,4.57
2018-04-08T15:45:57.174Z,6.37
2018-04-08T15:48:24.610Z,5.60
2018-04-08T15:50:52.806Z,4.60
2018-04-08T15:53:20.258Z,5.27
2018-04-08T15:55:47.705Z,4.07
2018-04-08T15:58:15.145Z,4.03
2018-04-08T16:00:43.342Z,4.43
2018-04-08T16:03:10.783Z,4.47
2018-04-08T16:05:39.091Z,5.33
2018-04-08T16:08:06.520Z,4.80
2018-04-08T16:10:33.962Z,4.90
2018-04-08T16:13:02.161Z,4.20
2018-04-08T16:15:29.606Z,4.30
2018-04-08T16:17:57.798Z,5.60
2018-04-08T16:20:25.245Z,5.77
2018-04-08T16:22:52.700Z,5.40
2018-04-08T16:25:22.496Z,4.53
2018-04-08T16:27:50.713Z,4.37
2018-04-08T16:30:18.147Z,5.17
2018-04-08T16:32:45.586Z,5.00
2018-04-08T16:35:13.798Z,4.13
2018-04-08T16:37:41.238Z,5.10
2018-04-08T16:40:08.689Z,4.90
2018-04-08T16:42:36.139Z,4.63
2018-04-08T16:45:03.586Z,4.73
2018-04-08T16:47:31.857Z,5.63
2018-04-08T16:49:59.294Z,4.43
2018-04-08T16:52:26.717Z,5.40
2018-04-08T16:54:54.163Z,5.53
2018-04-08T16:57:21.602Z,4.70
2018-04-08T16:59:49.037Z,5.37
2018-04-08T17:02:17.244Z,5.30
2018-04-08T17:04:44.690Z,5.67
2018-04-08T17:07:12.126Z,7.10
2018-04-08T17:09:40.335Z,6.60
2018-04-08T17:12:07.774Z,6.60
2018-04-08T17:14:35.222Z,6.23
2018-04-08T17:17:02.662Z,6.23
2018-04-08T17:19:30.862Z,6.90
2018-04-08T17:21:58.300Z,7.00
2018-04-08T17:24:25.754Z,10.40
2018-04-08T17:26:53.970Z,8.30
2018-04-08T17:29:21.397Z,7.87
2018-04-08T17:31:48.848Z,7.80
2018-04-08T17:34:16.283Z,6.57
2018-04-08T17:36:43.718Z,8.13
2018-04-08T17:39:11.149Z,7.60
2018-04-08T17:41:38.595Z,5.90
2018-04-08T17:44:06.040Z,5.93
2018-04-08T17:46:33.509Z,7.13
2018-04-08T17:49:00.968Z,8.00
2018-04-08T17:51:28.407Z,8.40
2018-04-08T17:53:55.847Z,7.10
2018-04-08T17:56:24.061Z,7.37
2018-04-08T17:58:51.501Z,7.67
2018-04-08T18:01:18.946Z,7.97
2018-04-08T18:03:46.457Z,7.93
2018-04-08T18:06:13.897Z,8.87
2018-04-08T18:08:41.332Z,8.00
2018-04-08T18:11:08.785Z,7.57
2018-04-08T18:13:36.228Z,7.03
2018-04-08T18:16:03.668Z,7.33
2018-04-08T18:18:31.874Z,7.40
2018-04-08T18:20:59.312Z,7.87
2018-04-08T18:23:26.756Z,9.00
2018-04-08T18:25:54.966Z,8.00
2018-04-08T18:28:22.406Z,7.73
2018-04-08T18:30:49.899Z,8.00
2018-04-08T18:33:17.293Z,8.00
2018-04-08T18:35:45.525Z,8.87
2018-04-08T18:38:12.967Z,7.90
2018-04-08T18:40:40.407Z,10.00
2018-04-08T18:43:07.854Z,8.73
2018-04-08T18:45:35.326Z,8.30
2018-04-08T18:48:02.795Z,7.60
2018-04-08T18:50:30.233Z,9.10
2018-04-08T18:52:58.314Z,8.80
2018-04-08T18:55:25.758Z,8.80
2018-04-08T18:57:53.238Z,8.50
2018-04-08T19:00:20.684Z,9.30
2018-04-08T19:02:48.139Z,8.80
2018-04-08T19:05:15.600Z,8.73
2018-04-08T19:07:43.031Z,9.00
2018-04-08T19:10:10.526Z,9.27
2018-04-08T19:12:38.010Z,8.53
2018-04-08T19:15:21.111Z,9.20
2018-04-08T19:17:54.335Z,9.00
2018-04-08T19:20:22.394Z,8.87
2018-04-08T19:22:49.838Z,9.10
2018-04-08T19:25:17.273Z,8.20
2018-04-08T19:27:44.722Z,9.20
2018-04-08T19:30:17.765Z,9.73
2018-04-08T19:32:45.968Z,7.93
2018-04-08T19:35:13.402Z,9.00
2018-04-08T19:37:41.618Z,7.97
2018-04-08T19:40:09.055Z,8.93
2018-04-08T19:42:36.502Z,8.53
2018-04-08T19:45:04.711Z,9.40
2018-04-08T19:47:33.141Z,8.33
2018-04-08T19:50:01.354Z,8.20
2018-04-08T19:52:28.809Z,8.50
2018-04-08T19:54:56.304Z,9.30
2018-04-08T19:57:23.773Z,8.60
2018-04-08T19:59:51.506Z,9.13
2018-04-08T20:02:18.930Z,9.13
2018-04-08T20:04:46.386Z,8.67
2018-04-08T20:07:13.921Z,8.90
2018-04-08T20:09:41.375Z,9.10
2018-04-08T20:12:10.019Z,8.50
2018-04-08T20:14:38.873Z,8.23
2018-04-08T20:17:06.323Z,8.43
2018-04-08T20:19:33.894Z,10.17
2018-04-08T20:22:01.338Z,8.93
2018-04-08T20:24:28.786Z,8.97
2018-04-08T20:26:57.864Z,9.03
2018-04-08T20:29:25.415Z,7.83
2018-04-08T20:31:53.055Z,9.40
2018-04-08T20:34:20.502Z,9.20
2018-04-08T20:36:47.949Z,10.00
2018-04-08T20:39:15.395Z,9.17
2018-04-08T20:41:42.830Z,8.17
2018-04-08T20:44:10.294Z,9.20
2018-04-08T20:46:38.494Z,9.23
2018-04-08T20:49:05.981Z,9.50
2018-04-08T20:51:33.385Z,8.60
2018-04-08T20:54:00.817Z,8.90
2018-04-08T20:56:29.040Z,9.37
2018-04-08T20:58:56.481Z,9.23
2018-04-08T21:01:23.922Z,9.27
2018-04-08T21:03:51.369Z,8.80
2018-04-08T21:06:18.813Z,8.53
2018-04-08T21:08:46.254Z,7.90
2018-04-08T21:11:13.693Z,8.40
2018-04-08T21:13:41.201Z,7.87
2018-04-08T21:16:08.681Z,8.43
2018-04-08T21:18:36.126Z,8.97
2018-04-08T21:21:03.576Z,8.10
2018-04-08T21:23:31.039Z,9.20
2018-04-08T21:25:58.510Z,9.87
2018-04-08T21:28:25.954Z,9.53
2018-04-08T21:30:53.395Z,8.90
2018-04-08T21:33:20.850Z,9.53
2018-04-08T21:35:49.095Z,9.53
2018-04-08T21:38:16.537Z,9.20
2018-04-08T21:40:44.038Z,9.90
2018-04-08T21:43:13.026Z,9.90
2018-04-08T21:45:41.298Z,9.40
2018-04-08T21:48:09.494Z,9.60
2018-04-08T21:50:36.938Z,8.83
2018-04-08T21:53:05.138Z,10.10
2018-04-08T21:55:32.582Z,9.40
2018-04-08T21:58:00.026Z,9.60
2018-04-08T22:00:27.466Z,8.77
2018-04-08T22:02:55.667Z,9.63
2018-04-08T22:05:23.111Z,10.30
2018-04-08T22:07:50.550Z,9.00
2018-04-08T22:10:18.758Z,9.77
2018-04-08T22:12:46.187Z,9.63
2018-04-08T22:15:14.399Z,8.97
2018-04-08T22:17:41.838Z,10.00
2018-04-08T22:20:09.288Z,9.47
2018-04-08T22:22:36.726Z,8.80
2018-04-08T22:25:04.196Z,9.93
2018-04-08T22:27:32.402Z,9.63
2018-04-08T22:29:59.840Z,9.93
2018-04-08T22:32:27.281Z,10.30
2018-04-08T22:34:54.718Z,9.73
2018-04-08T22:37:22.169Z,10.17
2018-04-08T22:39:49.605Z,10.13
2018-04-08T22:42:17.045Z,9.43
2018-04-08T22:44:44.487Z,10.90
2018-04-08T22:47:11.931Z,9.90
2018-04-08T22:49:39.365Z,9.63
2018-04-08T22:52:07.582Z,9.77
2018-04-08T22:54:35.018Z,9.10
2018-04-08T22:57:02.482Z,10.10
2018-04-08T22:59:29.918Z,8.87
2018-04-08T23:01:57.363Z,9.57
2018-04-08T23:04:25.567Z,9.13
2018-04-08T23:06:53.013Z,9.40
2018-04-08T23:09:20.463Z,10.50
2018-04-08T23:11:47.931Z,9.40
2018-04-08T23:14:16.101Z,8.50
2018-04-08T23:16:43.537Z,8.80
2018-04-08T23:19:11.750Z,9.50
2018-04-08T23:21:39.194Z,9.23
2018-04-08T23:24:06.618Z,8.93
2018-04-08T23:26:34.826Z,9.10
2018-04-08T23:29:02.278Z,9.23
2018-04-08T23:31:29.726Z,9.33
2018-04-08T23:33:57.195Z,10.13
2018-04-08T23:36:24.637Z,9.23
2018-04-08T23:38:52.091Z,9.40
2018-04-08T23:41:19.536Z,9.93
2018-04-08T23:43:47.754Z,10.27
2018-04-08T23:46:15.190Z,10.17
2018-04-08T23:48:42.634Z,9.70
2018-04-08T23:51:10.078Z,9.90
2018-04-08T23:53:38.290Z,11.40
2018-04-08T23:56:05.726Z,8.87
2018-04-08T23:58:33.171Z,9.03
